Terminal Aerodrome Forecast
Issued by NWS

Home | Current Version | Previous Version | Text Only | Print | Product List | Glossary On
Versions: 1 2 3 4 5 6 7 8 9 10 11 12 13 14
000
FTUS42 TJSJ 191149
TAFNCM
TAF
TNCM 191149Z 1912/2012 05020KT P6SM VCSH BKN019
     FM191600 01035G50KT 3SM +TSRA BKN020CB
     FM192030 01050G80KT 1SM +TSRA OVC022CB=

USA.gov is the U.S. government's official web portal to all federal, state and local government web resources and services.